sensor_id;sensor_type;location;lat;lon;timestamp;pressure;altitude;pressure_sealevel;temperature;humidity
49459;BME280;35354;51.296;16.924;2023-03-18T00:00:35;99484.13;;;5.60;58.53
49459;BME280;35354;51.296;16.924;2023-03-18T00:03:00;99480.97;;;5.50;58.19
49459;BME280;35354;51.296;16.924;2023-03-18T00:05:25;99439.22;;;5.35;57.88
49459;BME280;35354;51.296;16.924;2023-03-18T00:07:51;99453.53;;;5.46;57.63
49459;BME280;35354;51.296;16.924;2023-03-18T00:10:16;99475.53;;;5.60;57.44
49459;BME280;35354;51.296;16.924;2023-03-18T00:12:43;99452.59;;;5.49;57.26
49459;BME280;35354;51.296;16.924;2023-03-18T00:15:11;99465.16;;;5.61;57.06
49459;BME280;35354;51.296;16.924;2023-03-18T00:17:37;99458.88;;;5.70;56.70
49459;BME280;35354;51.296;16.924;2023-03-18T00:20:05;99450.31;;;5.68;56.99
49459;BME280;35354;51.296;16.924;2023-03-18T00:22:35;99462.09;;;5.78;56.97
49459;BME280;35354;51.296;16.924;2023-03-18T00:25:02;99463.16;;;5.71;57.07
49459;BME280;35354;51.296;16.924;2023-03-18T00:27:28;99460.75;;;5.65;57.13
49459;BME280;35354;51.296;16.924;2023-03-18T00:29:54;99438.72;;;5.53;57.36
49459;BME280;35354;51.296;16.924;2023-03-18T00:32:20;99460.78;;;5.63;57.60
49459;BME280;35354;51.296;16.924;2023-03-18T00:34:46;99471.09;;;5.65;57.58
49459;BME280;35354;51.296;16.924;2023-03-18T00:37:12;99437.09;;;5.49;57.38
49459;BME280;35354;51.296;16.924;2023-03-18T00:39:43;99450.03;;;5.49;57.78
49459;BME280;35354;51.296;16.924;2023-03-18T00:42:10;99437.50;;;5.35;57.88
49459;BME280;35354;51.296;16.924;2023-03-18T00:44:36;99453.75;;;5.39;58.44
49459;BME280;35354;51.296;16.924;2023-03-18T00:47:03;99468.38;;;5.40;58.71
49459;BME280;35354;51.296;16.924;2023-03-18T00:49:28;99468.53;;;5.34;59.14
49459;BME280;35354;51.296;16.924;2023-03-18T00:51:54;99465.44;;;5.21;59.47
49459;BME280;35354;51.296;16.924;2023-03-18T00:54:19;99464.72;;;5.16;59.72
49459;BME280;35354;51.296;16.924;2023-03-18T00:56:45;99444.50;;;5.00;59.82
49459;BME280;35354;51.296;16.924;2023-03-18T00:59:11;99466.84;;;5.02;60.20
49459;BME280;35354;51.296;16.924;2023-03-18T01:01:37;99471.25;;;4.98;60.22
49459;BME280;35354;51.296;16.924;2023-03-18T01:04:03;99434.72;;;4.81;60.61
49459;BME280;35354;51.296;16.924;2023-03-18T01:06:30;99480.81;;;4.93;60.57
49459;BME280;35354;51.296;16.924;2023-03-18T01:08:57;99455.44;;;4.76;60.64
49459;BME280;35354;51.296;16.924;2023-03-18T01:11:23;99476.66;;;4.89;60.28
49459;BME280;35354;51.296;16.924;2023-03-18T01:13:49;99477.44;;;4.91;60.64
49459;BME280;35354;51.296;16.924;2023-03-18T01:16:15;99452.97;;;4.73;60.29
49459;BME280;35354;51.296;16.924;2023-03-18T01:18:41;99475.88;;;4.85;60.63
49459;BME280;35354;51.296;16.924;2023-03-18T01:21:08;99479.31;;;4.86;60.76
49459;BME280;35354;51.296;16.924;2023-03-18T01:23:35;99475.88;;;4.85;60.68
49459;BME280;35354;51.296;16.924;2023-03-18T01:26:00;99463.97;;;4.80;60.90
49459;BME280;35354;51.296;16.924;2023-03-18T01:28:26;99441.03;;;4.69;61.17
49459;BME280;35354;51.296;16.924;2023-03-18T01:30:53;99463.31;;;4.71;61.52
49459;BME280;35354;51.296;16.924;2023-03-18T01:33:19;99438.91;;;4.50;61.25
49459;BME280;35354;51.296;16.924;2023-03-18T01:35:45;99446.63;;;4.52;61.53
49459;BME280;35354;51.296;16.924;2023-03-18T01:38:13;99465.09;;;4.69;61.53
49459;BME280;35354;51.296;16.924;2023-03-18T01:40:39;99450.97;;;4.50;61.81
49459;BME280;35354;51.296;16.924;2023-03-18T01:43:12;99470.63;;;4.56;61.72
49459;BME280;35354;51.296;16.924;2023-03-18T01:45:38;99462.06;;;4.54;61.82
49459;BME280;35354;51.296;16.924;2023-03-18T01:48:03;99415.56;;;4.22;61.98
49459;BME280;35354;51.296;16.924;2023-03-18T01:50:34;99421.69;;;4.18;62.13
49459;BME280;35354;51.296;16.924;2023-03-18T01:53:07;99464.16;;;4.39;62.08
49459;BME280;35354;51.296;16.924;2023-03-18T01:55:35;99417.50;;;4.14;61.90
49459;BME280;35354;51.296;16.924;2023-03-18T01:58:05;99454.81;;;4.34;61.90
49459;BME280;35354;51.296;16.924;2023-03-18T02:00:34;99464.81;;;4.46;61.93
49459;BME280;35354;51.296;16.924;2023-03-18T02:03:02;99443.66;;;4.33;62.09
49459;BME280;35354;51.296;16.924;2023-03-18T02:05:29;99434.41;;;4.24;62.14
49459;BME280;35354;51.296;16.924;2023-03-18T02:07:54;99435.19;;;4.28;62.09
49459;BME280;35354;51.296;16.924;2023-03-18T02:10:27;99460.78;;;4.36;62.45
49459;BME280;35354;51.296;16.924;2023-03-18T02:13:07;99465.09;;;4.35;62.69
49459;BME280;35354;51.296;16.924;2023-03-18T02:15:37;99466.00;;;4.34;62.86
49459;BME280;35354;51.296;16.924;2023-03-18T02:18:07;99454.34;;;4.18;62.90
49459;BME280;35354;51.296;16.924;2023-03-18T02:20:58;99445.00;;;4.14;63.00
49459;BME280;35354;51.296;16.924;2023-03-18T02:23:33;99476.38;;;4.30;63.14
49459;BME280;35354;51.296;16.924;2023-03-18T02:26:18;99473.78;;;4.31;62.97
49459;BME280;35354;51.296;16.924;2023-03-18T02:28:46;99477.16;;;4.33;63.18
49459;BME280;35354;51.296;16.924;2023-03-18T02:31:14;99471.09;;;4.36;62.77
49459;BME280;35354;51.296;16.924;2023-03-18T02:33:41;99448.97;;;4.25;62.72
49459;BME280;35354;51.296;16.924;2023-03-18T02:36:12;99465.06;;;4.37;62.64
49459;BME280;35354;51.296;16.924;2023-03-18T02:38:42;99477.94;;;4.38;62.79
49459;BME280;35354;51.296;16.924;2023-03-18T02:41:16;99411.56;;;4.11;62.57
49459;BME280;35354;51.296;16.924;2023-03-18T02:43:43;99456.44;;;4.38;62.36
49459;BME280;35354;51.296;16.924;2023-03-18T02:48:44;99433.50;;;4.27;62.55
49459;BME280;35354;51.296;16.924;2023-03-18T02:51:12;99431.53;;;4.37;62.37
49459;BME280;35354;51.296;16.924;2023-03-18T02:53:39;99442.63;;;4.40;62.13
49459;BME280;35354;51.296;16.924;2023-03-18T02:56:05;99437.50;;;4.39;62.37
49459;BME280;35354;51.296;16.924;2023-03-18T02:58:31;99435.84;;;4.36;61.89
49459;BME280;35354;51.296;16.924;2023-03-18T03:00:57;99440.78;;;4.45;62.27
49459;BME280;35354;51.296;16.924;2023-03-18T03:03:23;99460.38;;;4.53;62.10
49459;BME280;35354;51.296;16.924;2023-03-18T03:05:49;99439.19;;;4.40;62.17
49459;BME280;35354;51.296;16.924;2023-03-18T03:08:14;99446.75;;;4.47;62.22
49459;BME280;35354;51.296;16.924;2023-03-18T03:10:40;99458.59;;;4.55;62.22
49459;BME280;35354;51.296;16.924;2023-03-18T03:13:07;99450.06;;;4.53;62.24
49459;BME280;35354;51.296;16.924;2023-03-18T03:15:34;99438.25;;;4.44;62.09
49459;BME280;35354;51.296;16.924;2023-03-18T03:18:01;99440.00;;;4.42;62.18
49459;BME280;35354;51.296;16.924;2023-03-18T03:20:26;99458.41;;;4.62;62.29
49459;BME280;35354;51.296;16.924;2023-03-18T03:22:52;99425.38;;;4.42;62.25
49459;BME280;35354;51.296;16.924;2023-03-18T03:25:18;99463.69;;;4.58;62.26
49459;BME280;35354;51.296;16.924;2023-03-18T03:27:43;99453.97;;;4.67;62.21
49459;BME280;35354;51.296;16.924;2023-03-18T03:30:10;99449.88;;;4.60;61.96
49459;BME280;35354;51.296;16.924;2023-03-18T03:32:36;99441.78;;;4.40;62.22
49459;BME280;35354;51.296;16.924;2023-03-18T03:35:03;99447.81;;;4.39;62.02
49459;BME280;35354;51.296;16.924;2023-03-18T03:37:29;99471.59;;;4.52;62.55
49459;BME280;35354;51.296;16.924;2023-03-18T03:39:54;99459.00;;;4.38;62.49
49459;BME280;35354;51.296;16.924;2023-03-18T03:42:20;99448.91;;;4.30;62.36
49459;BME280;35354;51.296;16.924;2023-03-18T03:44:45;99461.63;;;4.36;62.89
49459;BME280;35354;51.296;16.924;2023-03-18T03:47:11;99443.09;;;4.22;62.82
49459;BME280;35354;51.296;16.924;2023-03-18T03:49:37;99463.25;;;4.40;62.82
49459;BME280;35354;51.296;16.924;2023-03-18T03:52:03;99471.81;;;4.41;62.79
49459;BME280;35354;51.296;16.924;2023-03-18T03:54:28;99442.66;;;4.39;62.70
49459;BME280;35354;51.296;16.924;2023-03-18T03:56:54;99461.41;;;4.45;62.53
49459;BME280;35354;51.296;16.924;2023-03-18T03:59:20;99465.78;;;4.42;62.61
49459;BME280;35354;51.296;16.924;2023-03-18T04:01:45;99471.78;;;4.42;62.56
49459;BME280;35354;51.296;16.924;2023-03-18T04:04:10;99469.13;;;4.45;62.70
49459;BME280;35354;51.296;16.924;2023-03-18T04:06:37;99419.84;;;4.23;62.80
49459;BME280;35354;51.296;16.924;2023-03-18T04:09:03;99477.59;;;4.50;62.62
49459;BME280;35354;51.296;16.924;2023-03-18T04:11:29;99431.16;;;4.18;62.86
49459;BME280;35354;51.296;16.924;2023-03-18T04:13:54;99439.50;;;4.28;62.55
49459;BME280;35354;51.296;16.924;2023-03-18T04:16:20;99475.13;;;4.46;62.61
49459;BME280;35354;51.296;16.924;2023-03-18T04:18:45;99482.66;;;4.55;62.50
49459;BME280;35354;51.296;16.924;2023-03-18T04:21:11;99490.84;;;4.72;62.60
49459;BME280;35354;51.296;16.924;2023-03-18T04:23:36;99489.34;;;4.62;62.35
49459;BME280;35354;51.296;16.924;2023-03-18T04:26:02;99465.66;;;4.48;62.36
49459;BME280;35354;51.296;16.924;2023-03-18T04:28:29;99468.06;;;4.54;62.51
49459;BME280;35354;51.296;16.924;2023-03-18T04:30:55;99487.50;;;4.67;62.50
49459;BME280;35354;51.296;16.924;2023-03-18T04:33:20;99462.34;;;4.43;62.40
49459;BME280;35354;51.296;16.924;2023-03-18T04:35:47;99482.00;;;4.47;62.84
49459;BME280;35354;51.296;16.924;2023-03-18T04:38:13;99465.03;;;4.38;63.32
49459;BME280;35354;51.296;16.924;2023-03-18T04:40:39;99471.81;;;4.41;63.22
49459;BME280;35354;51.296;16.924;2023-03-18T04:43:05;99471.88;;;4.39;63.54
49459;BME280;35354;51.296;16.924;2023-03-18T04:45:30;99476.22;;;4.37;63.29
49459;BME280;35354;51.296;16.924;2023-03-18T04:47:55;99466.78;;;4.36;63.28
49459;BME280;35354;51.296;16.924;2023-03-18T04:50:21;99450.59;;;4.31;63.01
49459;BME280;35354;51.296;16.924;2023-03-18T04:52:46;99482.97;;;4.43;63.06
49459;BME280;35354;51.296;16.924;2023-03-18T04:55:12;99471.81;;;4.41;62.99
49459;BME280;35354;51.296;16.924;2023-03-18T04:57:42;99478.72;;;4.40;62.90
49459;BME280;35354;51.296;16.924;2023-03-18T05:00:10;99474.28;;;4.45;62.93
49459;BME280;35354;51.296;16.924;2023-03-18T05:02:37;99467.78;;;4.31;62.77
49459;BME280;35354;51.296;16.924;2023-03-18T05:05:03;99490.66;;;4.44;62.68
49459;BME280;35354;51.296;16.924;2023-03-18T05:07:29;99487.97;;;4.49;63.07
49459;BME280;35354;51.296;16.924;2023-03-18T05:09:55;99490.38;;;4.57;62.62
49459;BME280;35354;51.296;16.924;2023-03-18T05:12:21;99462.47;;;4.38;62.58
49459;BME280;35354;51.296;16.924;2023-03-18T05:14:46;99460.50;;;4.48;62.61
49459;BME280;35354;51.296;16.924;2023-03-18T05:17:12;99473.69;;;4.70;62.86
49459;BME280;35354;51.296;16.924;2023-03-18T05:19:45;99461.03;;;4.61;62.25
49459;BME280;35354;51.296;16.924;2023-03-18T05:22:12;99461.91;;;4.60;62.49
49459;BME280;35354;51.296;16.924;2023-03-18T05:24:39;99470.38;;;4.65;62.43
49459;BME280;35354;51.296;16.924;2023-03-18T05:27:04;99459.47;;;4.55;62.43
49459;BME280;35354;51.296;16.924;2023-03-18T05:29:30;99462.75;;;4.60;62.34
49459;BME280;35354;51.296;16.924;2023-03-18T05:31:55;99476.34;;;4.67;62.21
49459;BME280;35354;51.296;16.924;2023-03-18T05:34:20;99485.50;;;4.79;62.21
49459;BME280;35354;51.296;16.924;2023-03-18T05:36:46;99487.25;;;4.78;62.01
49459;BME280;35354;51.296;16.924;2023-03-18T05:39:12;99485.78;;;4.68;62.31
49459;BME280;35354;51.296;16.924;2023-03-18T05:41:37;99498.34;;;4.82;62.07
49459;BME280;35354;51.296;16.924;2023-03-18T05:44:02;99472.66;;;4.75;62.06
49459;BME280;35354;51.296;16.924;2023-03-18T05:46:28;99475.19;;;4.79;62.12
49459;BME280;35354;51.296;16.924;2023-03-18T05:48:53;99497.81;;;5.02;61.76
49459;BME280;35354;51.296;16.924;2023-03-18T05:51:19;99476.56;;;4.92;61.48
49459;BME280;35354;51.296;16.924;2023-03-18T05:53:45;99466.63;;;5.09;61.35
49459;BME280;35354;51.296;16.924;2023-03-18T05:56:10;99467.91;;;5.25;61.09
49459;BME280;35354;51.296;16.924;2023-03-18T05:58:36;99496.38;;;5.54;61.15
49459;BME280;35354;51.296;16.924;2023-03-18T06:01:02;99495.91;;;5.70;60.51
49459;BME280;35354;51.296;16.924;2023-03-18T06:03:28;99476.84;;;5.73;60.25
49459;BME280;35354;51.296;16.924;2023-03-18T06:05:54;99493.78;;;5.83;59.80
49459;BME280;35354;51.296;16.924;2023-03-18T06:08:19;99498.13;;;5.83;59.73
49459;BME280;35354;51.296;16.924;2023-03-18T06:10:44;99467.28;;;5.76;59.81
49459;BME280;35354;51.296;16.924;2023-03-18T06:13:10;99473.47;;;5.71;59.83
49459;BME280;35354;51.296;16.924;2023-03-18T06:15:36;99502.81;;;5.99;59.86
49459;BME280;35354;51.296;16.924;2023-03-18T06:18:03;99495.31;;;5.90;59.32
49459;BME280;35354;51.296;16.924;2023-03-18T06:20:29;99483.88;;;5.99;59.32
49459;BME280;35354;51.296;16.924;2023-03-18T06:22:55;99503.06;;;6.20;59.36
49459;BME280;35354;51.296;16.924;2023-03-18T06:25:21;99448.53;;;5.99;59.19
49459;BME280;35354;51.296;16.924;2023-03-18T06:27:47;99474.16;;;6.34;58.89
49459;BME280;35354;51.296;16.924;2023-03-18T06:30:14;99473.41;;;6.57;58.49
49459;BME280;35354;51.296;16.924;2023-03-18T06:32:40;99482.91;;;6.83;57.57
49459;BME280;35354;51.296;16.924;2023-03-18T06:35:06;99502.53;;;7.38;57.14
49459;BME280;35354;51.296;16.924;2023-03-18T06:37:31;99481.41;;;7.72;55.95
49459;BME280;35354;51.296;16.924;2023-03-18T06:39:57;99497.53;;;7.81;55.42
49459;BME280;35354;51.296;16.924;2023-03-18T06:42:22;99504.22;;;7.86;55.73
49459;BME280;35354;51.296;16.924;2023-03-18T06:44:47;99487.38;;;7.74;55.87
49459;BME280;35354;51.296;16.924;2023-03-18T06:47:17;99487.94;;;7.83;55.29
49459;BME280;35354;51.296;16.924;2023-03-18T06:49:43;99461.91;;;7.62;55.34
49459;BME280;35354;51.296;16.924;2023-03-18T06:52:08;99481.44;;;7.71;55.18
49459;BME280;35354;51.296;16.924;2023-03-18T06:54:33;99483.72;;;7.80;55.36
49459;BME280;35354;51.296;16.924;2023-03-18T06:56:59;99484.84;;;7.96;55.30
49459;BME280;35354;51.296;16.924;2023-03-18T06:59:25;99500.09;;;8.26;54.84
49459;BME280;35354;51.296;16.924;2023-03-18T07:01:51;99491.41;;;8.49;54.56
49459;BME280;35354;51.296;16.924;2023-03-18T07:04:17;99510.16;;;8.78;54.41
49459;BME280;35354;51.296;16.924;2023-03-18T07:06:42;99488.91;;;8.88;54.07
49459;BME280;35354;51.296;16.924;2023-03-18T07:09:07;99486.63;;;9.01;53.66
49459;BME280;35354;51.296;16.924;2023-03-18T07:11:35;99492.63;;;9.23;52.98
49459;BME280;35354;51.296;16.924;2023-03-18T07:14:00;99516.91;;;9.62;52.46
49459;BME280;35354;51.296;16.924;2023-03-18T07:16:26;99508.13;;;9.83;52.76
49459;BME280;35354;51.296;16.924;2023-03-18T07:18:51;99488.09;;;10.04;52.22
49459;BME280;35354;51.296;16.924;2023-03-18T07:21:17;99514.59;;;10.67;51.41
49459;BME280;35354;51.296;16.924;2023-03-18T07:23:43;99501.63;;;11.18;50.08
49459;BME280;35354;51.296;16.924;2023-03-18T07:26:09;99512.22;;;11.48;49.58
49459;BME280;35354;51.296;16.924;2023-03-18T07:28:34;99484.78;;;11.41;49.42
49459;BME280;35354;51.296;16.924;2023-03-18T07:31:00;99512.50;;;11.59;49.19
49459;BME280;35354;51.296;16.924;2023-03-18T07:33:25;99511.16;;;12.01;48.45
49459;BME280;35354;51.296;16.924;2023-03-18T07:35:51;99493.78;;;12.16;47.42
49459;BME280;35354;51.296;16.924;2023-03-18T07:38:16;99519.38;;;12.57;47.02
49459;BME280;35354;51.296;16.924;2023-03-18T07:40:42;99493.50;;;12.52;46.52
49459;BME280;35354;51.296;16.924;2023-03-18T07:43:07;99511.38;;;12.44;45.90
49459;BME280;35354;51.296;16.924;2023-03-18T07:45:33;99483.78;;;12.54;46.15
49459;BME280;35354;51.296;16.924;2023-03-18T07:47:58;99506.09;;;13.20;45.46
49459;BME280;35354;51.296;16.924;2023-03-18T07:50:24;99486.84;;;13.21;44.32
49459;BME280;35354;51.296;16.924;2023-03-18T07:52:49;99517.25;;;13.66;43.98
49459;BME280;35354;51.296;16.924;2023-03-18T07:55:14;99513.22;;;14.31;43.05
49459;BME280;35354;51.296;16.924;2023-03-18T07:57:40;99509.50;;;14.47;42.51
49459;BME280;35354;51.296;16.924;2023-03-18T08:00:08;99501.06;;;14.57;42.22
49459;BME280;35354;51.296;16.924;2023-03-18T08:02:34;99511.84;;;14.25;42.25
49459;BME280;35354;51.296;16.924;2023-03-18T08:05:00;99507.59;;;13.95;42.65
49459;BME280;35354;51.296;16.924;2023-03-18T08:07:26;99510.06;;;13.56;43.19
49459;BME280;35354;51.296;16.924;2023-03-18T08:09:51;99533.81;;;13.53;43.60
49459;BME280;35354;51.296;16.924;2023-03-18T08:12:16;99535.59;;;13.22;43.86
49459;BME280;35354;51.296;16.924;2023-03-18T08:14:42;99513.53;;;13.12;43.67
49459;BME280;35354;51.296;16.924;2023-03-18T08:17:08;99507.81;;;13.05;44.28
49459;BME280;35354;51.296;16.924;2023-03-18T08:19:33;99540.97;;;13.35;44.02
49459;BME280;35354;51.296;16.924;2023-03-18T08:21:59;99528.28;;;13.29;44.16
49459;BME280;35354;51.296;16.924;2023-03-18T08:24:25;99541.06;;;13.33;43.82
49459;BME280;35354;51.296;16.924;2023-03-18T08:26:50;99523.13;;;13.41;43.93
49459;BME280;35354;51.296;16.924;2023-03-18T08:29:16;99497.75;;;13.13;43.59
49459;BME280;35354;51.296;16.924;2023-03-18T08:31:41;99526.53;;;13.13;43.77
49459;BME280;35354;51.296;16.924;2023-03-18T08:34:07;99534.28;;;13.45;43.76
49459;BME280;35354;51.296;16.924;2023-03-18T08:36:32;99528.19;;;13.44;43.45
49459;BME280;35354;51.296;16.924;2023-03-18T08:38:58;99520.59;;;13.40;43.11
49459;BME280;35354;51.296;16.924;2023-03-18T08:41:23;99529.31;;;13.40;43.01
49459;BME280;35354;51.296;16.924;2023-03-18T08:43:50;99522.19;;;13.28;43.31
49459;BME280;35354;51.296;16.924;2023-03-18T08:46:17;99528.94;;;13.32;43.15
49459;BME280;35354;51.296;16.924;2023-03-18T08:48:42;99518.91;;;13.39;43.50
49459;BME280;35354;51.296;16.924;2023-03-18T08:51:08;99537.63;;;13.47;43.28
49459;BME280;35354;51.296;16.924;2023-03-18T08:53:33;99543.50;;;13.36;43.08
49459;BME280;35354;51.296;16.924;2023-03-18T08:55:59;99541.72;;;13.37;43.20
49459;BME280;35354;51.296;16.924;2023-03-18T08:58:26;99552.75;;;13.42;43.12
49459;BME280;35354;51.296;16.924;2023-03-18T09:00:53;99546.50;;;13.44;43.10
49459;BME280;35354;51.296;16.924;2023-03-18T09:03:19;99535.38;;;13.41;42.91
49459;BME280;35354;51.296;16.924;2023-03-18T09:05:48;99519.50;;;13.14;42.68
49459;BME280;35354;51.296;16.924;2023-03-18T09:08:14;99544.25;;;13.24;43.21
49459;BME280;35354;51.296;16.924;2023-03-18T09:10:39;99540.91;;;13.36;43.21
49459;BME280;35354;51.296;16.924;2023-03-18T09:13:05;99545.19;;;13.37;43.32
49459;BME280;35354;51.296;16.924;2023-03-18T09:15:32;99528.56;;;13.38;43.39
49459;BME280;35354;51.296;16.924;2023-03-18T09:17:58;99537.78;;;13.44;43.23
49459;BME280;35354;51.296;16.924;2023-03-18T09:20:24;99529.69;;;13.48;43.31
49459;BME280;35354;51.296;16.924;2023-03-18T09:22:49;99543.28;;;13.25;43.00
49459;BME280;35354;51.296;16.924;2023-03-18T09:25:16;99545.00;;;13.10;43.52
49459;BME280;35354;51.296;16.924;2023-03-18T09:27:41;99524.59;;;12.87;43.53
49459;BME280;35354;51.296;16.924;2023-03-18T09:30:08;99524.59;;;12.87;44.04
49459;BME280;35354;51.296;16.924;2023-03-18T09:32:34;99550.88;;;12.99;43.99
49459;BME280;35354;51.296;16.924;2023-03-18T09:34:59;99544.31;;;12.92;44.00
49459;BME280;35354;51.296;16.924;2023-03-18T09:37:24;99545.69;;;12.84;43.84
49459;BME280;35354;51.296;16.924;2023-03-18T09:39:50;99534.56;;;12.80;43.43
49459;BME280;35354;51.296;16.924;2023-03-18T09:42:36;99546.72;;;12.81;43.80
49459;BME280;35354;51.296;16.924;2023-03-18T09:45:41;99546.97;;;13.07;43.80
49459;BME280;35354;51.296;16.924;2023-03-18T09:51:09;99514.63;;;13.23;43.00
49459;BME280;35354;51.296;16.924;2023-03-18T09:56:22;99530.09;;;12.82;43.67
49459;BME280;35354;51.296;16.924;2023-03-18T09:59:00;99524.38;;;12.76;44.04
49459;BME280;35354;51.296;16.924;2023-03-18T10:01:28;99533.03;;;12.76;44.83
49459;BME280;35354;51.296;16.924;2023-03-18T10:04:24;99536.03;;;13.14;44.95
49459;BME280;35354;51.296;16.924;2023-03-18T10:06:58;99533.81;;;13.08;43.74
49459;BME280;35354;51.296;16.924;2023-03-18T10:09:39;99523.00;;;12.84;43.77
49459;BME280;35354;51.296;16.924;2023-03-18T10:12:15;99519.25;;;12.74;43.81
49459;BME280;35354;51.296;16.924;2023-03-18T10:14:48;99543.25;;;13.11;43.82
49459;BME280;35354;51.296;16.924;2023-03-18T10:17:22;99516.00;;;13.15;43.44
49459;BME280;35354;51.296;16.924;2023-03-18T10:19:54;99530.59;;;13.33;43.45
49459;BME280;35354;51.296;16.924;2023-03-18T10:25:23;99507.44;;;13.41;43.05
49459;BME280;35354;51.296;16.924;2023-03-18T10:35:52;99499.59;;;13.41;43.96
49459;BME280;35354;51.296;16.924;2023-03-18T10:38:29;99506.69;;;13.39;43.87
49459;BME280;35354;51.296;16.924;2023-03-18T10:40:58;99500.03;;;13.48;43.79
49459;BME280;35354;51.296;16.924;2023-03-18T10:43:28;99521.16;;;13.73;43.71
49459;BME280;35354;51.296;16.924;2023-03-18T10:45:59;99506.88;;;13.65;43.10
49459;BME280;35354;51.296;16.924;2023-03-18T10:48:30;99504.25;;;13.51;43.39
49459;BME280;35354;51.296;16.924;2023-03-18T10:51:25;99525.00;;;13.68;43.95
49459;BME280;35354;51.296;16.924;2023-03-18T10:56:41;99524.50;;;13.90;43.50
49459;BME280;35354;51.296;16.924;2023-03-18T10:59:16;99525.28;;;13.92;43.23
49459;BME280;35354;51.296;16.924;2023-03-18T11:01:46;99516.22;;;13.69;43.14
49459;BME280;35354;51.296;16.924;2023-03-18T11:04:14;99519.03;;;13.66;43.78
49459;BME280;35354;51.296;16.924;2023-03-18T11:06:46;99493.25;;;13.74;43.73
49459;BME280;35354;51.296;16.924;2023-03-18T11:09:16;99514.13;;;14.03;44.14
49459;BME280;35354;51.296;16.924;2023-03-18T11:11:44;99516.19;;;13.97;43.35
49459;BME280;35354;51.296;16.924;2023-03-18T11:14:21;99512.19;;;13.92;42.75
49459;BME280;35354;51.296;16.924;2023-03-18T11:16:55;99512.63;;;13.98;43.49
49459;BME280;35354;51.296;16.924;2023-03-18T11:22:22;99509.38;;;13.81;43.71
49459;BME280;35354;51.296;16.924;2023-03-18T11:27:46;99502.59;;;13.78;43.60
49459;BME280;35354;51.296;16.924;2023-03-18T11:30:23;99488.91;;;13.73;43.39
49459;BME280;35354;51.296;16.924;2023-03-18T11:33:04;99488.63;;;13.78;43.72
49459;BME280;35354;51.296;16.924;2023-03-18T11:38:28;99494.97;;;13.73;44.01
49459;BME280;35354;51.296;16.924;2023-03-18T11:41:06;99500.47;;;13.97;43.93
49459;BME280;35354;51.296;16.924;2023-03-18T11:43:33;99470.09;;;13.95;43.63
49459;BME280;35354;51.296;16.924;2023-03-18T11:46:02;99487.25;;;13.86;43.05
49459;BME280;35354;51.296;16.924;2023-03-18T11:48:34;99470.31;;;13.78;43.69
49459;BME280;35354;51.296;16.924;2023-03-18T11:56:47;99476.59;;;13.75;43.47
49459;BME280;35354;51.296;16.924;2023-03-18T12:02:10;99491.50;;;14.02;43.43
49459;BME280;35354;51.296;16.924;2023-03-18T12:07:49;99483.25;;;14.08;44.03
49459;BME280;35354;51.296;16.924;2023-03-18T12:10:22;99480.78;;;14.19;43.86
49459;BME280;35354;51.296;16.924;2023-03-18T12:13:02;99491.56;;;14.14;43.66
49459;BME280;35354;51.296;16.924;2023-03-18T12:29:33;99489.19;;;14.24;43.45
49459;BME280;35354;51.296;16.924;2023-03-18T12:47:04;99466.59;;;14.36;43.55
49459;BME280;35354;51.296;16.924;2023-03-18T12:49:34;99494.91;;;14.43;42.51
49459;BME280;35354;51.296;16.924;2023-03-18T12:52:06;99499.09;;;14.33;42.82
49459;BME280;35354;51.296;16.924;2023-03-18T12:54:47;99497.53;;;14.43;43.30
49459;BME280;35354;51.296;16.924;2023-03-18T12:57:36;99476.88;;;14.39;43.13
49459;BME280;35354;51.296;16.924;2023-03-18T13:02:55;99493.75;;;14.62;43.25
49459;BME280;35354;51.296;16.924;2023-03-18T13:05:33;99472.81;;;14.47;43.11
49459;BME280;35354;51.296;16.924;2023-03-18T13:10:33;99467.97;;;14.68;43.44
49459;BME280;35354;51.296;16.924;2023-03-18T13:13:02;99487.56;;;14.63;42.50
49459;BME280;35354;51.296;16.924;2023-03-18T13:15:33;99476.44;;;14.59;42.35
49459;BME280;35354;51.296;16.924;2023-03-18T13:18:05;99464.28;;;14.58;43.14
49459;BME280;35354;51.296;16.924;2023-03-18T13:20:38;99470.72;;;14.67;43.18
49459;BME280;35354;51.296;16.924;2023-03-18T13:31:16;99481.94;;;14.82;43.44
49459;BME280;35354;51.296;16.924;2023-03-18T13:42:11;99483.88;;;14.53;43.10
49459;BME280;35354;51.296;16.924;2023-03-18T13:44:49;99479.84;;;14.47;43.51
49459;BME280;35354;51.296;16.924;2023-03-18T13:47:20;99478.84;;;14.35;43.30
49459;BME280;35354;51.296;16.924;2023-03-18T13:49:47;99485.69;;;14.38;43.54
49459;BME280;35354;51.296;16.924;2023-03-18T13:52:27;99467.59;;;14.20;43.87
49459;BME280;35354;51.296;16.924;2023-03-18T13:54:57;99488.50;;;14.35;43.82
49459;BME280;35354;51.296;16.924;2023-03-18T13:59:48;99466.00;;;14.18;44.23
49459;BME280;35354;51.296;16.924;2023-03-18T14:04:58;99462.53;;;14.44;44.72
49459;BME280;35354;51.296;16.924;2023-03-18T14:07:24;99482.34;;;14.63;44.71
49459;BME280;35354;51.296;16.924;2023-03-18T14:14:55;99483.50;;;14.71;43.99
49459;BME280;35354;51.296;16.924;2023-03-18T14:22:41;99461.09;;;14.80;44.00
49459;BME280;35354;51.296;16.924;2023-03-18T14:28:08;99468.31;;;14.77;44.21
49459;BME280;35354;51.296;16.924;2023-03-18T14:35:58;99471.88;;;14.76;45.16
49459;BME280;35354;51.296;16.924;2023-03-18T14:38:26;99477.19;;;14.61;43.93
49459;BME280;35354;51.296;16.924;2023-03-18T14:40:55;99476.34;;;14.61;44.62
49459;BME280;35354;51.296;16.924;2023-03-18T14:43:34;99469.72;;;14.55;44.94
49459;BME280;35354;51.296;16.924;2023-03-18T14:46:15;99435.53;;;14.17;44.71
49459;BME280;35354;51.296;16.924;2023-03-18T14:48:41;99469.81;;;14.27;44.75
49459;BME280;35354;51.296;16.924;2023-03-18T14:51:14;99442.97;;;14.23;44.79
49459;BME280;35354;51.296;16.924;2023-03-18T14:53:50;99461.31;;;14.23;44.83
49459;BME280;35354;51.296;16.924;2023-03-18T14:56:22;99458.03;;;14.19;44.96